sensor_id;sensor_type;location;lat;lon;timestamp;pressure;altitude;pressure_sealevel;temperature;humidity
30339;BME280;795;49.296;11.348;2023-05-29T00:00:59;96458.66;;;14.66;68.64
30339;BME280;795;49.296;11.348;2023-05-29T00:03:26;96456.78;;;14.66;67.90
30339;BME280;795;49.296;11.348;2023-05-29T00:05:54;96431.50;;;14.52;67.89
30339;BME280;795;49.296;11.348;2023-05-29T00:08:21;96443.97;;;14.53;67.99
30339;BME280;795;49.296;11.348;2023-05-29T00:10:48;96460.34;;;14.67;67.71
30339;BME280;795;49.296;11.348;2023-05-29T00:13:15;96425.97;;;14.39;67.87
30339;BME280;795;49.296;11.348;2023-05-29T00:15:42;96451.13;;;14.61;67.79
30339;BME280;795;49.296;11.348;2023-05-29T00:18:09;96461.56;;;14.64;67.29
30339;BME280;795;49.296;11.348;2023-05-29T00:20:36;96461.75;;;14.63;68.14
30339;BME280;795;49.296;11.348;2023-05-29T00:23:04;96455.50;;;14.62;67.76
30339;BME280;795;49.296;11.348;2023-05-29T00:25:33;96469.34;;;14.52;68.88
30339;BME280;795;49.296;11.348;2023-05-29T00:28:00;96454.47;;;14.42;68.65
30339;BME280;795;49.296;11.348;2023-05-29T00:30:27;96450.47;;;14.38;68.84
30339;BME280;795;49.296;11.348;2023-05-29T00:32:54;96450.91;;;14.41;68.23
30339;BME280;795;49.296;11.348;2023-05-29T00:35:21;96439.22;;;14.34;68.09
30339;BME280;795;49.296;11.348;2023-05-29T00:37:48;96453.81;;;14.40;68.73
30339;BME280;795;49.296;11.348;2023-05-29T00:40:15;96462.56;;;14.42;68.10
30339;BME280;795;49.296;11.348;2023-05-29T00:42:43;96384.19;;;14.00;68.07
30339;BME280;795;49.296;11.348;2023-05-29T00:45:10;96445.97;;;14.45;67.19
30339;BME280;795;49.296;11.348;2023-05-29T00:47:37;96449.22;;;14.55;67.09
30339;BME280;795;49.296;11.348;2023-05-29T00:50:06;96348.03;;;13.79;67.84
30339;BME280;795;49.296;11.348;2023-05-29T00:52:33;96433.19;;;14.18;68.72
30339;BME280;795;49.296;11.348;2023-05-29T00:55:01;96435.31;;;14.22;68.69
30339;BME280;795;49.296;11.348;2023-05-29T00:57:30;96445.19;;;14.15;69.06
30339;BME280;795;49.296;11.348;2023-05-29T01:00:00;96433.84;;;14.05;70.00
30339;BME280;795;49.296;11.348;2023-05-29T01:02:29;96385.47;;;13.68;70.03
30339;BME280;795;49.296;11.348;2023-05-29T01:04:57;96440.88;;;14.00;70.14
30339;BME280;795;49.296;11.348;2023-05-29T01:07:24;96435.94;;;13.88;69.86
30339;BME280;795;49.296;11.348;2023-05-29T01:09:51;96442.66;;;13.92;69.69
30339;BME280;795;49.296;11.348;2023-05-29T01:13:03;96457.63;;;13.95;68.99
30339;BME280;795;49.296;11.348;2023-05-29T01:16:08;96459.50;;;13.94;68.48
30339;BME280;795;49.296;11.348;2023-05-29T01:19:39;96411.53;;;13.61;68.51
30339;BME280;795;49.296;11.348;2023-05-29T01:23:10;96435.88;;;13.67;69.10
30339;BME280;795;49.296;11.348;2023-05-29T01:26:23;96447.97;;;13.71;68.96
30339;BME280;795;49.296;11.348;2023-05-29T01:29:00;96450.59;;;13.65;68.68
30339;BME280;795;49.296;11.348;2023-05-29T01:31:28;96446.59;;;13.75;68.10
30339;BME280;795;49.296;11.348;2023-05-29T01:33:59;96426.75;;;13.83;67.22
30339;BME280;795;49.296;11.348;2023-05-29T01:36:29;96437.06;;;13.94;66.82
30339;BME280;795;49.296;11.348;2023-05-29T01:38:59;96424.69;;;14.00;66.16
30339;BME280;795;49.296;11.348;2023-05-29T01:41:28;96359.34;;;13.68;64.96
30339;BME280;795;49.296;11.348;2023-05-29T01:43:59;96417.28;;;14.08;65.14
30339;BME280;795;49.296;11.348;2023-05-29T01:46:26;96412.09;;;14.07;64.44
30339;BME280;795;49.296;11.348;2023-05-29T01:48:54;96439.31;;;14.26;63.74
30339;BME280;795;49.296;11.348;2023-05-29T01:51:22;96300.31;;;13.44;64.31
30339;BME280;795;49.296;11.348;2023-05-29T01:53:49;96418.97;;;14.09;64.86
30339;BME280;795;49.296;11.348;2023-05-29T01:56:17;96422.97;;;14.13;64.53
30339;BME280;795;49.296;11.348;2023-05-29T01:58:45;96420.53;;;14.18;63.73
30339;BME280;795;49.296;11.348;2023-05-29T02:01:13;96383.00;;;13.87;64.05
30339;BME280;795;49.296;11.348;2023-05-29T02:03:40;96422.06;;;14.06;64.25
30339;BME280;795;49.296;11.348;2023-05-29T02:06:07;96410.13;;;14.01;64.91
30339;BME280;795;49.296;11.348;2023-05-29T02:08:34;96407.91;;;14.04;64.65
30339;BME280;795;49.296;11.348;2023-05-29T02:11:01;96412.84;;;14.01;64.95
30339;BME280;795;49.296;11.348;2023-05-29T02:13:28;96413.47;;;14.03;64.15
30339;BME280;795;49.296;11.348;2023-05-29T02:15:55;96425.97;;;14.04;64.69
30339;BME280;795;49.296;11.348;2023-05-29T02:18:22;96417.59;;;13.98;65.14
30339;BME280;795;49.296;11.348;2023-05-29T02:20:49;96410.66;;;13.89;65.28
30339;BME280;795;49.296;11.348;2023-05-29T02:23:16;96416.41;;;13.86;64.94
30339;BME280;795;49.296;11.348;2023-05-29T02:25:43;96386.69;;;13.65;65.92
30339;BME280;795;49.296;11.348;2023-05-29T02:28:10;96412.16;;;13.77;65.87
30339;BME280;795;49.296;11.348;2023-05-29T02:30:37;96362.16;;;13.46;66.08
30339;BME280;795;49.296;11.348;2023-05-29T02:33:04;96405.72;;;13.78;65.83
30339;BME280;795;49.296;11.348;2023-05-29T02:35:33;96407.91;;;13.68;66.60
30339;BME280;795;49.296;11.348;2023-05-29T02:38:00;96405.44;;;13.73;66.53
30339;BME280;795;49.296;11.348;2023-05-29T02:40:31;96416.00;;;13.68;66.78
30339;BME280;795;49.296;11.348;2023-05-29T02:42:58;96428.63;;;13.68;66.72
30339;BME280;795;49.296;11.348;2023-05-29T02:45:25;96411.59;;;13.67;66.44
30339;BME280;795;49.296;11.348;2023-05-29T02:47:52;96409.47;;;13.63;66.86
30339;BME280;795;49.296;11.348;2023-05-29T02:50:19;96403.16;;;13.56;66.69
30339;BME280;795;49.296;11.348;2023-05-29T02:52:46;96404.38;;;13.53;66.97
30339;BME280;795;49.296;11.348;2023-05-29T02:55:15;96394.31;;;13.47;67.80
30339;BME280;795;49.296;11.348;2023-05-29T02:57:42;96396.44;;;13.37;68.41
30339;BME280;795;49.296;11.348;2023-05-29T03:00:10;96415.59;;;13.42;68.22
30339;BME280;795;49.296;11.348;2023-05-29T03:02:38;96325.38;;;12.72;69.66
30339;BME280;795;49.296;11.348;2023-05-29T03:05:05;96408.84;;;13.17;70.23
30339;BME280;795;49.296;11.348;2023-05-29T03:07:33;96409.75;;;13.09;70.76
30339;BME280;795;49.296;11.348;2023-05-29T03:10:00;96413.13;;;13.03;71.17
30339;BME280;795;49.296;11.348;2023-05-29T03:12:27;96387.94;;;12.96;70.96
30339;BME280;795;49.296;11.348;2023-05-29T03:14:55;96416.63;;;13.12;70.23
30339;BME280;795;49.296;11.348;2023-05-29T03:17:23;96423.75;;;13.05;71.45
30339;BME280;795;49.296;11.348;2023-05-29T03:19:50;96413.53;;;13.00;71.59
30339;BME280;795;49.296;11.348;2023-05-29T03:22:17;96419.34;;;12.89;72.35
30339;BME280;795;49.296;11.348;2023-05-29T03:24:44;96420.91;;;12.84;73.30
30339;BME280;795;49.296;11.348;2023-05-29T03:27:12;96422.94;;;12.82;72.54
30339;BME280;795;49.296;11.348;2023-05-29T03:29:39;96345.78;;;12.37;73.26
30339;BME280;795;49.296;11.348;2023-05-29T03:32:06;96406.97;;;12.80;72.34
30339;BME280;795;49.296;11.348;2023-05-29T03:34:33;96411.47;;;12.88;72.92
30339;BME280;795;49.296;11.348;2023-05-29T03:37:00;96412.97;;;13.05;72.00
30339;BME280;795;49.296;11.348;2023-05-29T03:39:28;96412.81;;;13.06;71.83
30339;BME280;795;49.296;11.348;2023-05-29T03:41:56;96328.38;;;12.77;71.25
30339;BME280;795;49.296;11.348;2023-05-29T03:44:23;96423.69;;;13.27;70.89
30339;BME280;795;49.296;11.348;2023-05-29T03:46:52;96405.09;;;13.32;70.63
30339;BME280;795;49.296;11.348;2023-05-29T03:49:19;96403.81;;;13.43;70.00
30339;BME280;795;49.296;11.348;2023-05-29T03:51:46;96412.19;;;13.48;70.25
30339;BME280;795;49.296;11.348;2023-05-29T03:54:13;96326.16;;;12.95;70.61
30339;BME280;795;49.296;11.348;2023-05-29T03:56:40;96401.03;;;13.37;70.62
30339;BME280;795;49.296;11.348;2023-05-29T03:59:07;96412.47;;;13.39;71.06
30339;BME280;795;49.296;11.348;2023-05-29T04:01:34;96422.03;;;13.41;70.94
30339;BME280;795;49.296;11.348;2023-05-29T04:04:01;96380.19;;;13.16;70.86
30339;BME280;795;49.296;11.348;2023-05-29T04:06:29;96428.28;;;13.42;70.39
30339;BME280;795;49.296;11.348;2023-05-29T04:08:56;96430.88;;;13.50;69.19
30339;BME280;795;49.296;11.348;2023-05-29T04:11:23;96430.00;;;13.64;67.63
30339;BME280;795;49.296;11.348;2023-05-29T04:13:50;96428.00;;;13.66;67.30
30339;BME280;795;49.296;11.348;2023-05-29T04:16:17;96431.97;;;13.70;67.11
30339;BME280;795;49.296;11.348;2023-05-29T04:18:44;96438.28;;;13.77;65.88
30339;BME280;795;49.296;11.348;2023-05-29T04:21:11;96358.53;;;13.24;66.74
30339;BME280;795;49.296;11.348;2023-05-29T04:23:38;96440.06;;;13.70;67.73
30339;BME280;795;49.296;11.348;2023-05-29T04:26:05;96413.03;;;13.49;66.73
30339;BME280;795;49.296;11.348;2023-05-29T04:28:32;96450.56;;;13.79;67.05
30339;BME280;795;49.296;11.348;2023-05-29T04:30:59;96418.59;;;13.47;66.68
30339;BME280;795;49.296;11.348;2023-05-29T04:33:27;96456.34;;;13.76;67.54
30339;BME280;795;49.296;11.348;2023-05-29T04:35:56;96449.19;;;13.69;67.35
30339;BME280;795;49.296;11.348;2023-05-29T04:38:23;96467.13;;;13.91;65.91
30339;BME280;795;49.296;11.348;2023-05-29T04:40:53;96481.72;;;13.96;65.49
30339;BME280;795;49.296;11.348;2023-05-29T04:43:25;96470.72;;;13.98;65.23
30339;BME280;795;49.296;11.348;2023-05-29T04:45:56;96398.13;;;13.67;64.81
30339;BME280;795;49.296;11.348;2023-05-29T04:48:23;96469.03;;;14.26;64.00
30339;BME280;795;49.296;11.348;2023-05-29T04:50:50;96478.69;;;14.35;63.64
30339;BME280;795;49.296;11.348;2023-05-29T04:53:16;96484.16;;;14.42;64.00
30339;BME280;795;49.296;11.348;2023-05-29T04:55:43;96481.75;;;14.47;62.69
30339;BME280;795;49.296;11.348;2023-05-29T04:58:10;96483.09;;;14.57;62.67
30339;BME280;795;49.296;11.348;2023-05-29T05:00:39;96486.78;;;14.71;61.81
30339;BME280;795;49.296;11.348;2023-05-29T05:03:06;96451.00;;;14.48;61.73
30339;BME280;795;49.296;11.348;2023-05-29T05:05:33;96450.09;;;14.62;60.41
30339;BME280;795;49.296;11.348;2023-05-29T05:08:00;96455.44;;;14.77;60.34
30339;BME280;795;49.296;11.348;2023-05-29T05:10:26;96499.41;;;15.06;60.25
30339;BME280;795;49.296;11.348;2023-05-29T05:12:53;96499.25;;;15.14;59.82
30339;BME280;795;49.296;11.348;2023-05-29T05:15:21;96504.13;;;15.25;59.29
30339;BME280;795;49.296;11.348;2023-05-29T05:17:48;96497.53;;;15.35;58.57
30339;BME280;795;49.296;11.348;2023-05-29T05:20:15;96494.84;;;15.35;57.45
30339;BME280;795;49.296;11.348;2023-05-29T05:22:43;96504.75;;;15.49;57.87
30339;BME280;795;49.296;11.348;2023-05-29T05:25:10;96522.13;;;15.61;58.41
30339;BME280;795;49.296;11.348;2023-05-29T05:27:38;96515.69;;;15.62;58.59
30339;BME280;795;49.296;11.348;2023-05-29T05:30:06;96513.88;;;16.10;57.18
30339;BME280;795;49.296;11.348;2023-05-29T05:32:35;96514.56;;;16.59;55.49
30339;BME280;795;49.296;11.348;2023-05-29T05:35:02;96514.66;;;17.05;54.00
30339;BME280;795;49.296;11.348;2023-05-29T05:37:30;96524.25;;;17.27;53.77
30339;BME280;795;49.296;11.348;2023-05-29T05:39:57;96525.56;;;17.57;52.62
30339;BME280;795;49.296;11.348;2023-05-29T05:42:27;96525.97;;;17.74;51.42
30339;BME280;795;49.296;11.348;2023-05-29T05:44:54;96529.91;;;17.78;51.46
30339;BME280;795;49.296;11.348;2023-05-29T05:47:20;96510.88;;;17.98;51.55
30339;BME280;795;49.296;11.348;2023-05-29T05:49:47;96520.47;;;18.07;50.98
30339;BME280;795;49.296;11.348;2023-05-29T05:52:16;96522.56;;;18.05;51.14
30339;BME280;795;49.296;11.348;2023-05-29T05:54:43;96548.84;;;18.30;51.14
30339;BME280;795;49.296;11.348;2023-05-29T05:57:13;96549.38;;;18.59;51.06
30339;BME280;795;49.296;11.348;2023-05-29T05:59:40;96522.81;;;18.67;50.91
30339;BME280;795;49.296;11.348;2023-05-29T06:02:07;96543.09;;;19.02;49.39
30339;BME280;795;49.296;11.348;2023-05-29T06:04:35;96552.66;;;19.18;48.32
30339;BME280;795;49.296;11.348;2023-05-29T06:07:02;96550.88;;;18.99;48.08
30339;BME280;795;49.296;11.348;2023-05-29T06:09:29;96547.78;;;19.27;48.53
30339;BME280;795;49.296;11.348;2023-05-29T06:11:56;96563.78;;;19.48;47.52
30339;BME280;795;49.296;11.348;2023-05-29T06:14:24;96558.50;;;19.53;46.94
30339;BME280;795;49.296;11.348;2023-05-29T06:16:51;96570.06;;;19.48;46.93
30339;BME280;795;49.296;11.348;2023-05-29T06:19:18;96566.50;;;19.48;47.79
30339;BME280;795;49.296;11.348;2023-05-29T06:21:45;96565.69;;;19.72;46.55
30339;BME280;795;49.296;11.348;2023-05-29T06:24:13;96565.38;;;19.62;46.99
30339;BME280;795;49.296;11.348;2023-05-29T06:26:40;96556.22;;;19.74;46.73
30339;BME280;795;49.296;11.348;2023-05-29T06:29:08;96567.97;;;19.75;47.09
30339;BME280;795;49.296;11.348;2023-05-29T06:31:35;96576.47;;;20.10;46.12
30339;BME280;795;49.296;11.348;2023-05-29T06:34:02;96571.69;;;20.48;45.51
30339;BME280;795;49.296;11.348;2023-05-29T06:36:29;96522.91;;;20.15;44.78
30339;BME280;795;49.296;11.348;2023-05-29T06:38:55;96577.44;;;20.40;45.53
30339;BME280;795;49.296;11.348;2023-05-29T06:41:23;96572.22;;;20.57;46.27
30339;BME280;795;49.296;11.348;2023-05-29T06:43:50;96577.53;;;20.88;44.90
30339;BME280;795;49.296;11.348;2023-05-29T06:46:18;96585.41;;;21.14;44.01
30339;BME280;795;49.296;11.348;2023-05-29T06:48:45;96575.16;;;21.09;43.72
30339;BME280;795;49.296;11.348;2023-05-29T06:51:12;96586.78;;;21.35;43.96
30339;BME280;795;49.296;11.348;2023-05-29T06:53:40;96591.47;;;21.46;42.41
30339;BME280;795;49.296;11.348;2023-05-29T06:56:07;96539.44;;;21.11;42.78
30339;BME280;795;49.296;11.348;2023-05-29T06:58:35;96587.22;;;21.32;43.31
30339;BME280;795;49.296;11.348;2023-05-29T07:01:02;96571.16;;;21.53;42.41
30339;BME280;795;49.296;11.348;2023-05-29T07:03:34;96591.50;;;22.22;41.67
30339;BME280;795;49.296;11.348;2023-05-29T07:06:01;96527.13;;;22.54;41.06
30339;BME280;795;49.296;11.348;2023-05-29T07:08:28;96546.06;;;22.44;39.84
30339;BME280;795;49.296;11.348;2023-05-29T07:10:56;96594.34;;;22.85;39.75
30339;BME280;795;49.296;11.348;2023-05-29T07:13:25;96599.72;;;22.68;39.51
30339;BME280;795;49.296;11.348;2023-05-29T07:15:53;96587.00;;;22.62;38.67
30339;BME280;795;49.296;11.348;2023-05-29T07:18:20;96593.88;;;22.30;39.14
30339;BME280;795;49.296;11.348;2023-05-29T07:20:47;96598.53;;;22.29;39.28
30339;BME280;795;49.296;11.348;2023-05-29T07:23:14;96585.97;;;22.91;39.03
30339;BME280;795;49.296;11.348;2023-05-29T07:25:41;96593.13;;;22.92;38.64
30339;BME280;795;49.296;11.348;2023-05-29T07:28:08;96519.44;;;22.28;37.72
30339;BME280;795;49.296;11.348;2023-05-29T07:30:48;96590.81;;;23.13;37.15
30339;BME280;795;49.296;11.348;2023-05-29T07:33:15;96582.59;;;23.13;37.79
30339;BME280;795;49.296;11.348;2023-05-29T07:35:42;96581.88;;;23.45;37.93
30339;BME280;795;49.296;11.348;2023-05-29T07:38:09;96581.56;;;23.30;36.65
30339;BME280;795;49.296;11.348;2023-05-29T07:40:36;96554.97;;;23.42;36.48
30339;BME280;795;49.296;11.348;2023-05-29T07:43:05;96585.03;;;23.82;36.17
30339;BME280;795;49.296;11.348;2023-05-29T07:45:32;96586.81;;;23.32;35.54
30339;BME280;795;49.296;11.348;2023-05-29T07:47:59;96604.06;;;23.89;35.65
30339;BME280;795;49.296;11.348;2023-05-29T07:50:27;96591.13;;;23.56;35.80
30339;BME280;795;49.296;11.348;2023-05-29T07:52:54;96593.28;;;23.14;34.07
30339;BME280;795;49.296;11.348;2023-05-29T07:55:22;96593.09;;;23.44;33.71
30339;BME280;795;49.296;11.348;2023-05-29T07:57:49;96592.78;;;23.29;34.46
30339;BME280;795;49.296;11.348;2023-05-29T08:03:38;96606.94;;;23.26;34.73
30339;BME280;795;49.296;11.348;2023-05-29T08:08:35;96586.78;;;23.43;34.18
30339;BME280;795;49.296;11.348;2023-05-29T08:11:02;96608.34;;;24.29;32.56
30339;BME280;795;49.296;11.348;2023-05-29T08:13:30;96586.47;;;24.34;30.71
30339;BME280;795;49.296;11.348;2023-05-29T08:15:57;96600.53;;;24.21;32.37
30339;BME280;795;49.296;11.348;2023-05-29T08:18:26;96572.00;;;24.06;31.95
30339;BME280;795;49.296;11.348;2023-05-29T08:20:53;96602.56;;;24.81;30.53
30339;BME280;795;49.296;11.348;2023-05-29T08:23:21;96531.03;;;23.99;30.64
30339;BME280;795;49.296;11.348;2023-05-29T08:25:48;96603.06;;;24.61;31.31
30339;BME280;795;49.296;11.348;2023-05-29T08:28:15;96612.03;;;24.90;30.61
30339;BME280;795;49.296;11.348;2023-05-29T08:30:43;96600.16;;;25.28;28.84
30339;BME280;795;49.296;11.348;2023-05-29T08:33:10;96569.59;;;25.02;30.17
30339;BME280;795;49.296;11.348;2023-05-29T08:35:37;96600.72;;;25.08;30.66
30339;BME280;795;49.296;11.348;2023-05-29T08:38:03;96595.34;;;25.61;29.61
30339;BME280;795;49.296;11.348;2023-05-29T08:40:31;96551.75;;;25.48;29.54
30339;BME280;795;49.296;11.348;2023-05-29T08:43:13;96559.88;;;25.38;28.76
30339;BME280;795;49.296;11.348;2023-05-29T08:45:45;96498.19;;;25.83;29.04
30339;BME280;795;49.296;11.348;2023-05-29T08:48:18;96576.34;;;26.18;27.69
30339;BME280;795;49.296;11.348;2023-05-29T08:50:46;96592.25;;;25.85;27.75
30339;BME280;795;49.296;11.348;2023-05-29T08:53:15;96585.00;;;25.25;29.03
30339;BME280;795;49.296;11.348;2023-05-29T08:55:42;96585.75;;;25.42;27.92
30339;BME280;795;49.296;11.348;2023-05-29T08:58:11;96587.53;;;25.53;28.33
30339;BME280;795;49.296;11.348;2023-05-29T09:00:40;96534.03;;;24.91;28.63
30339;BME280;795;49.296;11.348;2023-05-29T09:03:08;96553.03;;;25.19;28.07
30339;BME280;795;49.296;11.348;2023-05-29T09:05:36;96582.69;;;25.39;28.37
30339;BME280;795;49.296;11.348;2023-05-29T09:08:09;96583.84;;;26.23;29.53
30339;BME280;795;49.296;11.348;2023-05-29T09:10:42;96593.88;;;26.39;29.49
30339;BME280;795;49.296;11.348;2023-05-29T09:13:12;96579.31;;;26.80;27.83
30339;BME280;795;49.296;11.348;2023-05-29T09:15:41;96591.59;;;27.15;27.37
30339;BME280;795;49.296;11.348;2023-05-29T09:18:10;96602.22;;;26.86;28.51
30339;BME280;795;49.296;11.348;2023-05-29T09:20:38;96604.59;;;26.41;27.44
30339;BME280;795;49.296;11.348;2023-05-29T09:23:09;96590.06;;;26.82;28.03
30339;BME280;795;49.296;11.348;2023-05-29T09:25:42;96613.84;;;27.55;27.22
30339;BME280;795;49.296;11.348;2023-05-29T09:28:10;96608.69;;;27.12;26.49
30339;BME280;795;49.296;11.348;2023-05-29T09:30:38;96590.03;;;27.34;26.90
30339;BME280;795;49.296;11.348;2023-05-29T09:33:10;96549.28;;;27.46;26.64
30339;BME280;795;49.296;11.348;2023-05-29T09:35:48;96598.81;;;28.33;25.91
30339;BME280;795;49.296;11.348;2023-05-29T09:38:19;96617.88;;;28.04;26.86
30339;BME280;795;49.296;11.348;2023-05-29T09:41:06;96591.06;;;27.13;26.14
30339;BME280;795;49.296;11.348;2023-05-29T09:43:34;96603.94;;;25.97;27.13
30339;BME280;795;49.296;11.348;2023-05-29T09:46:01;96614.34;;;26.53;27.04
30339;BME280;795;49.296;11.348;2023-05-29T09:48:35;96549.47;;;26.25;26.32
30339;BME280;795;49.296;11.348;2023-05-29T09:51:03;96612.22;;;27.69;26.04
30339;BME280;795;49.296;11.348;2023-05-29T09:53:30;96579.09;;;27.64;25.53
30339;BME280;795;49.296;11.348;2023-05-29T09:55:57;96609.00;;;28.07;25.83
30339;BME280;795;49.296;11.348;2023-05-29T09:58:27;96576.44;;;28.50;25.25
30339;BME280;795;49.296;11.348;2023-05-29T10:00:55;96610.59;;;29.24;24.42
30339;BME280;795;49.296;11.348;2023-05-29T10:03:24;96538.06;;;28.43;23.94
30339;BME280;795;49.296;11.348;2023-05-29T10:05:57;96622.16;;;29.36;23.88
30339;BME280;795;49.296;11.348;2023-05-29T10:08:28;96549.94;;;28.44;23.83
30339;BME280;795;49.296;11.348;2023-05-29T10:11:03;96615.94;;;28.75;24.19
30339;BME280;795;49.296;11.348;2023-05-29T10:13:42;96608.13;;;29.23;23.97
30339;BME280;795;49.296;11.348;2023-05-29T10:16:21;96588.03;;;28.32;24.29
30339;BME280;795;49.296;11.348;2023-05-29T10:18:56;96603.97;;;29.25;24.48
30339;BME280;795;49.296;11.348;2023-05-29T10:21:28;96608.72;;;29.74;23.84
30339;BME280;795;49.296;11.348;2023-05-29T10:23:57;96581.69;;;28.71;25.46
30339;BME280;795;49.296;11.348;2023-05-29T10:26:26;96596.25;;;29.02;25.80
30339;BME280;795;49.296;11.348;2023-05-29T10:35:18;96603.78;;;29.61;24.84
30339;BME280;795;49.296;11.348;2023-05-29T10:40:36;96591.22;;;30.27;24.48
30339;BME280;795;49.296;11.348;2023-05-29T10:43:03;96607.72;;;31.05;23.15
30339;BME280;795;49.296;11.348;2023-05-29T10:50:47;96608.66;;;30.28;24.23
30339;BME280;795;49.296;11.348;2023-05-29T10:53:30;96559.16;;;30.16;23.30
30339;BME280;795;49.296;11.348;2023-05-29T10:56:00;96560.69;;;30.37;23.42
30339;BME280;795;49.296;11.348;2023-05-29T10:58:30;96534.69;;;30.85;21.96
30339;BME280;795;49.296;11.348;2023-05-29T11:00:58;96591.38;;;30.41;23.69
30339;BME280;795;49.296;11.348;2023-05-29T11:03:32;96599.06;;;30.15;24.58
30339;BME280;795;49.296;11.348;2023-05-29T11:06:16;96588.94;;;30.68;24.87
30339;BME280;795;49.296;11.348;2023-05-29T11:08:56;96591.19;;;31.84;23.56
30339;BME280;795;49.296;11.348;2023-05-29T11:11:33;96532.97;;;31.98;22.76
30339;BME280;795;49.296;11.348;2023-05-29T11:14:07;96587.50;;;31.70;23.22
30339;BME280;795;49.296;11.348;2023-05-29T11:16:37;96544.25;;;31.45;24.25
30339;BME280;795;49.296;11.348;2023-05-29T11:19:08;96582.06;;;30.27;24.06
30339;BME280;795;49.296;11.348;2023-05-29T11:22:13;96583.28;;;30.78;24.63
30339;BME280;795;49.296;11.348;2023-05-29T11:24:47;96591.25;;;30.84;24.58
30339;BME280;795;49.296;11.348;2023-05-29T11:27:14;96518.41;;;32.38;22.90
30339;BME280;795;49.296;11.348;2023-05-29T11:29:41;96534.97;;;32.75;22.39
30339;BME280;795;49.296;11.348;2023-05-29T11:32:17;96514.47;;;31.88;22.28
30339;BME280;795;49.296;11.348;2023-05-29T11:34:47;96539.16;;;31.71;22.63
30339;BME280;795;49.296;11.348;2023-05-29T11:37:15;96502.19;;;31.15;24.12
30339;BME280;795;49.296;11.348;2023-05-29T11:39:42;96568.03;;;29.79;24.01
30339;BME280;795;49.296;11.348;2023-05-29T11:42:11;96572.78;;;30.46;24.96
30339;BME280;795;49.296;11.348;2023-05-29T11:44:38;96563.44;;;30.95;24.23
30339;BME280;795;49.296;11.348;2023-05-29T11:47:07;96576.19;;;31.43;24.34
30339;BME280;795;49.296;11.348;2023-05-29T11:49:37;96548.72;;;31.84;23.92
30339;BME280;795;49.296;11.348;2023-05-29T11:52:13;96580.41;;;32.71;23.63
30339;BME280;795;49.296;11.348;2023-05-29T11:54:44;96551.25;;;32.68;22.60
30339;BME280;795;49.296;11.348;2023-05-29T11:57:22;96565.91;;;32.23;22.36
30339;BME280;795;49.296;11.348;2023-05-29T11:59:52;96561.56;;;30.90;24.02
30339;BME280;795;49.296;11.348;2023-05-29T12:02:25;96582.63;;;30.86;24.18
30339;BME280;795;49.296;11.348;2023-05-29T12:05:05;96586.75;;;31.65;23.45
30339;BME280;795;49.296;11.348;2023-05-29T12:07:36;96592.97;;;30.80;24.54
30339;BME280;795;49.296;11.348;2023-05-29T12:10:14;96577.63;;;30.26;24.59
30339;BME280;795;49.296;11.348;2023-05-29T12:12:42;96553.41;;;31.22;23.03
30339;BME280;795;49.296;11.348;2023-05-29T12:15:13;96547.50;;;31.71;23.20
30339;BME280;795;49.296;11.348;2023-05-29T12:17:41;96504.69;;;32.28;21.72
30339;BME280;795;49.296;11.348;2023-05-29T12:20:12;96515.75;;;32.14;22.02
30339;BME280;795;49.296;11.348;2023-05-29T12:22:43;96568.44;;;32.20;21.76
30339;BME280;795;49.296;11.348;2023-05-29T12:25:21;96508.69;;;31.66;22.93
30339;BME280;795;49.296;11.348;2023-05-29T12:27:49;96521.38;;;32.42;21.74
30339;BME280;795;49.296;11.348;2023-05-29T12:30:22;96565.31;;;31.70;21.67
30339;BME280;795;49.296;11.348;2023-05-29T12:33:00;96544.09;;;29.49;24.34
30339;BME280;795;49.296;11.348;2023-05-29T12:35:30;96544.00;;;30.42;24.19
30339;BME280;795;49.296;11.348;2023-05-29T12:38:01;96566.78;;;31.44;23.88
30339;BME280;795;49.296;11.348;2023-05-29T12:40:33;96520.19;;;30.94;23.01
30339;BME280;795;49.296;11.348;2023-05-29T12:43:08;96562.16;;;32.14;22.94
30339;BME280;795;49.296;11.348;2023-05-29T12:45:39;96557.31;;;31.64;22.76
30339;BME280;795;49.296;11.348;2023-05-29T12:48:07;96504.81;;;32.37;21.75
30339;BME280;795;49.296;11.348;2023-05-29T12:50:39;96569.16;;;33.22;21.11
30339;BME280;795;49.296;11.348;2023-05-29T12:53:09;96571.31;;;33.38;21.81
30339;BME280;795;49.296;11.348;2023-05-29T12:55:40;96570.59;;;33.06;21.07
30339;BME280;795;49.296;11.348;2023-05-29T12:58:15;96571.50;;;33.01;20.81
30339;BME280;795;49.296;11.348;2023-05-29T13:00:45;96517.06;;;32.82;21.51
30339;BME280;795;49.296;11.348;2023-05-29T13:03:15;96556.19;;;32.58;21.34
30339;BME280;795;49.296;11.348;2023-05-29T13:05:42;96557.41;;;32.33;21.05
30339;BME280;795;49.296;11.348;2023-05-29T13:08:09;96556.06;;;33.50;20.29
30339;BME280;795;49.296;11.348;2023-05-29T13:10:36;96558.50;;;35.03;19.45
30339;BME280;795;49.296;11.348;2023-05-29T13:13:04;96556.63;;;34.23;21.80
30339;BME280;795;49.296;11.348;2023-05-29T13:15:31;96555.63;;;34.19;21.86
30339;BME280;795;49.296;11.348;2023-05-29T13:18:00;96525.19;;;32.64;21.08
30339;BME280;795;49.296;11.348;2023-05-29T13:20:28;96529.50;;;32.06;20.20
30339;BME280;795;49.296;11.348;2023-05-29T13:22:55;96522.56;;;32.22;21.63
30339;BME280;795;49.296;11.348;2023-05-29T13:25:22;96523.16;;;32.70;21.54
30339;BME280;795;49.296;11.348;2023-05-29T13:27:52;96543.72;;;32.69;21.57
30339;BME280;795;49.296;11.348;2023-05-29T13:30:19;96537.09;;;32.51;22.13
30339;BME280;795;49.296;11.348;2023-05-29T13:32:46;96546.66;;;32.91;21.16
30339;BME280;795;49.296;11.348;2023-05-29T13:35:14;96539.78;;;33.57;20.36
30339;BME280;795;49.296;11.348;2023-05-29T13:37:41;96540.41;;;34.47;19.03
30339;BME280;795;49.296;11.348;2023-05-29T13:40:11;96533.72;;;33.55;20.17
30339;BME280;795;49.296;11.348;2023-05-29T13:42:39;96524.13;;;33.83;20.16